sensor_id;sensor_type;location;lat;lon;timestamp;P1;durP1;ratioP1;P2;durP2;ratioP2
64907;SDS011;64365;-1.756;110.040;2023-02-21T00:05:22;33.90;;;18.87;;
64907;SDS011;64365;-1.756;110.040;2023-02-21T00:10:50;39.08;;;18.55;;
64907;SDS011;64365;-1.756;110.040;2023-02-21T00:13:36;33.25;;;19.42;;
64907;SDS011;64365;-1.756;110.040;2023-02-21T00:16:20;40.45;;;20.25;;
64907;SDS011;64365;-1.756;110.040;2023-02-21T00:19:05;44.30;;;20.95;;
64907;SDS011;64365;-1.756;110.040;2023-02-21T00:21:49;35.28;;;19.98;;
64907;SDS011;64365;-1.756;110.040;2023-02-21T00:24:33;34.22;;;18.75;;
64907;SDS011;64365;-1.756;110.040;2023-02-21T00:27:17;33.75;;;19.20;;
64907;SDS011;64365;-1.756;110.040;2023-02-21T00:30:03;32.95;;;18.88;;
64907;SDS011;64365;-1.756;110.040;2023-02-21T00:32:48;36.53;;;19.58;;
64907;SDS011;64365;-1.756;110.040;2023-02-21T00:35:31;45.22;;;21.60;;
64907;SDS011;64365;-1.756;110.040;2023-02-21T00:38:15;39.97;;;20.90;;
64907;SDS011;64365;-1.756;110.040;2023-02-21T00:43:44;39.15;;;20.95;;
64907;SDS011;64365;-1.756;110.040;2023-02-21T00:46:29;41.92;;;20.40;;
64907;SDS011;64365;-1.756;110.040;2023-02-21T00:49:13;40.80;;;20.45;;
64907;SDS011;64365;-1.756;110.040;2023-02-21T00:51:57;45.35;;;22.55;;
64907;SDS011;64365;-1.756;110.040;2023-02-21T00:54:41;43.60;;;23.30;;
64907;SDS011;64365;-1.756;110.040;2023-02-21T00:57:25;44.85;;;22.58;;
64907;SDS011;64365;-1.756;110.040;2023-02-21T01:00:14;52.92;;;22.38;;
64907;SDS011;64365;-1.756;110.040;2023-02-21T01:03:01;39.40;;;21.92;;
64907;SDS011;64365;-1.756;110.040;2023-02-21T01:05:46;42.17;;;22.58;;
64907;SDS011;64365;-1.756;110.040;2023-02-21T01:08:30;38.92;;;21.85;;
64907;SDS011;64365;-1.756;110.040;2023-02-21T01:11:14;37.25;;;20.40;;
64907;SDS011;64365;-1.756;110.040;2023-02-21T01:13:58;43.33;;;23.73;;
64907;SDS011;64365;-1.756;110.040;2023-02-21T01:16:42;43.83;;;23.60;;
64907;SDS011;64365;-1.756;110.040;2023-02-21T01:19:28;43.08;;;22.33;;
64907;SDS011;64365;-1.756;110.040;2023-02-21T01:22:12;50.65;;;25.05;;
64907;SDS011;64365;-1.756;110.040;2023-02-21T01:27:40;42.03;;;21.67;;
64907;SDS011;64365;-1.756;110.040;2023-02-21T01:33:09;43.97;;;24.63;;
64907;SDS011;64365;-1.756;110.040;2023-02-21T01:35:55;53.75;;;24.95;;
64907;SDS011;64365;-1.756;110.040;2023-02-21T01:38:39;56.15;;;26.58;;
64907;SDS011;64365;-1.756;110.040;2023-02-21T01:41:23;50.35;;;25.30;;
64907;SDS011;64365;-1.756;110.040;2023-02-21T01:44:26;51.33;;;25.33;;
64907;SDS011;64365;-1.756;110.040;2023-02-21T01:47:14;43.67;;;23.23;;
64907;SDS011;64365;-1.756;110.040;2023-02-21T01:49:59;50.70;;;25.25;;
64907;SDS011;64365;-1.756;110.040;2023-02-21T01:52:46;52.00;;;26.58;;
64907;SDS011;64365;-1.756;110.040;2023-02-21T01:55:32;53.63;;;26.92;;
64907;SDS011;64365;-1.756;110.040;2023-02-21T01:58:17;44.72;;;23.15;;
64907;SDS011;64365;-1.756;110.040;2023-02-21T02:01:06;44.95;;;24.48;;
64907;SDS011;64365;-1.756;110.040;2023-02-21T02:03:53;45.08;;;23.17;;
64907;SDS011;64365;-1.756;110.040;2023-02-21T02:06:38;52.10;;;26.48;;
64907;SDS011;64365;-1.756;110.040;2023-02-21T02:09:23;48.95;;;24.98;;
64907;SDS011;64365;-1.756;110.040;2023-02-21T02:12:15;44.17;;;22.75;;
64907;SDS011;64365;-1.756;110.040;2023-02-21T02:17:50;49.70;;;24.70;;
64907;SDS011;64365;-1.756;110.040;2023-02-21T02:20:39;47.88;;;24.30;;
64907;SDS011;64365;-1.756;110.040;2023-02-21T02:29:47;44.53;;;24.10;;
64907;SDS011;64365;-1.756;110.040;2023-02-21T02:35:31;49.25;;;24.13;;
64907;SDS011;64365;-1.756;110.040;2023-02-21T02:38:00;48.13;;;23.48;;
64907;SDS011;64365;-1.756;110.040;2023-02-21T02:40:32;50.90;;;26.33;;
64907;SDS011;64365;-1.756;110.040;2023-02-21T02:43:02;47.88;;;24.75;;
64907;SDS011;64365;-1.756;110.040;2023-02-21T02:45:39;42.83;;;24.45;;
64907;SDS011;64365;-1.756;110.040;2023-02-21T02:48:12;56.00;;;23.40;;
64907;SDS011;64365;-1.756;110.040;2023-02-21T02:50:46;48.45;;;24.45;;
64907;SDS011;64365;-1.756;110.040;2023-02-21T02:53:16;51.63;;;24.23;;
64907;SDS011;64365;-1.756;110.040;2023-02-21T02:55:45;49.47;;;23.90;;
64907;SDS011;64365;-1.756;110.040;2023-02-21T02:58:16;50.45;;;25.70;;
64907;SDS011;64365;-1.756;110.040;2023-02-21T03:00:49;43.72;;;24.33;;
64907;SDS011;64365;-1.756;110.040;2023-02-21T03:03:29;61.70;;;25.33;;
64907;SDS011;64365;-1.756;110.040;2023-02-21T03:06:14;42.70;;;22.60;;
64907;SDS011;64365;-1.756;110.040;2023-02-21T03:08:50;46.25;;;25.27;;
64907;SDS011;64365;-1.756;110.040;2023-02-21T03:11:21;55.35;;;28.33;;
64907;SDS011;64365;-1.756;110.040;2023-02-21T03:13:51;52.13;;;25.33;;
64907;SDS011;64365;-1.756;110.040;2023-02-21T03:16:22;55.13;;;25.52;;
64907;SDS011;64365;-1.756;110.040;2023-02-21T03:18:53;51.00;;;26.00;;
64907;SDS011;64365;-1.756;110.040;2023-02-21T03:21:26;50.95;;;26.65;;
64907;SDS011;64365;-1.756;110.040;2023-02-21T03:23:56;53.60;;;25.50;;
64907;SDS011;64365;-1.756;110.040;2023-02-21T03:26:26;51.75;;;25.92;;
64907;SDS011;64365;-1.756;110.040;2023-02-21T03:28:54;50.22;;;25.60;;
64907;SDS011;64365;-1.756;110.040;2023-02-21T03:31:23;49.95;;;25.33;;
64907;SDS011;64365;-1.756;110.040;2023-02-21T03:33:55;51.33;;;26.77;;
64907;SDS011;64365;-1.756;110.040;2023-02-21T03:36:22;55.65;;;26.10;;
64907;SDS011;64365;-1.756;110.040;2023-02-21T03:38:50;51.97;;;27.67;;
64907;SDS011;64365;-1.756;110.040;2023-02-21T03:41:17;55.45;;;26.27;;
64907;SDS011;64365;-1.756;110.040;2023-02-21T03:43:43;52.50;;;27.50;;
64907;SDS011;64365;-1.756;110.040;2023-02-21T03:46:10;51.90;;;27.67;;
64907;SDS011;64365;-1.756;110.040;2023-02-21T03:48:37;68.47;;;30.05;;
64907;SDS011;64365;-1.756;110.040;2023-02-21T03:51:03;57.15;;;28.30;;
64907;SDS011;64365;-1.756;110.040;2023-02-21T03:53:30;47.58;;;26.90;;
64907;SDS011;64365;-1.756;110.040;2023-02-21T03:55:58;48.75;;;26.38;;
64907;SDS011;64365;-1.756;110.040;2023-02-21T03:58:25;55.92;;;28.42;;
64907;SDS011;64365;-1.756;110.040;2023-02-21T04:00:51;49.28;;;26.00;;
64907;SDS011;64365;-1.756;110.040;2023-02-21T04:03:18;52.38;;;28.08;;
64907;SDS011;64365;-1.756;110.040;2023-02-21T04:05:45;50.63;;;26.52;;
64907;SDS011;64365;-1.756;110.040;2023-02-21T04:08:12;51.58;;;27.25;;
64907;SDS011;64365;-1.756;110.040;2023-02-21T04:10:39;59.05;;;25.58;;
64907;SDS011;64365;-1.756;110.040;2023-02-21T04:13:07;50.90;;;27.13;;
64907;SDS011;64365;-1.756;110.040;2023-02-21T04:15:34;53.28;;;27.38;;
64907;SDS011;64365;-1.756;110.040;2023-02-21T04:18:00;54.13;;;25.92;;
64907;SDS011;64365;-1.756;110.040;2023-02-21T04:20:27;52.00;;;28.15;;
64907;SDS011;64365;-1.756;110.040;2023-02-21T04:22:54;55.88;;;28.60;;
64907;SDS011;64365;-1.756;110.040;2023-02-21T04:25:20;53.78;;;28.45;;
64907;SDS011;64365;-1.756;110.040;2023-02-21T04:27:47;59.25;;;27.83;;
64907;SDS011;64365;-1.756;110.040;2023-02-21T04:30:16;53.20;;;26.88;;
64907;SDS011;64365;-1.756;110.040;2023-02-21T04:32:42;51.33;;;27.88;;
64907;SDS011;64365;-1.756;110.040;2023-02-21T04:35:09;56.22;;;28.50;;
64907;SDS011;64365;-1.756;110.040;2023-02-21T04:37:36;56.88;;;28.38;;
64907;SDS011;64365;-1.756;110.040;2023-02-21T04:40:03;54.08;;;26.27;;
64907;SDS011;64365;-1.756;110.040;2023-02-21T04:42:30;62.85;;;30.83;;
64907;SDS011;64365;-1.756;110.040;2023-02-21T04:44:56;53.75;;;31.10;;
64907;SDS011;64365;-1.756;110.040;2023-02-21T04:47:24;64.72;;;30.95;;
64907;SDS011;64365;-1.756;110.040;2023-02-21T04:49:51;60.92;;;28.75;;
64907;SDS011;64365;-1.756;110.040;2023-02-21T04:52:17;58.42;;;30.23;;
64907;SDS011;64365;-1.756;110.040;2023-02-21T04:54:45;58.42;;;30.42;;
64907;SDS011;64365;-1.756;110.040;2023-02-21T04:57:12;54.58;;;28.48;;
64907;SDS011;64365;-1.756;110.040;2023-02-21T04:59:39;60.60;;;31.25;;
64907;SDS011;64365;-1.756;110.040;2023-02-21T05:02:05;67.78;;;33.40;;
64907;SDS011;64365;-1.756;110.040;2023-02-21T05:04:33;65.13;;;32.20;;
64907;SDS011;64365;-1.756;110.040;2023-02-21T05:07:00;67.07;;;32.92;;
64907;SDS011;64365;-1.756;110.040;2023-02-21T05:09:27;59.00;;;31.27;;
64907;SDS011;64365;-1.756;110.040;2023-02-21T05:11:53;58.67;;;31.17;;
64907;SDS011;64365;-1.756;110.040;2023-02-21T05:14:20;55.80;;;29.02;;
64907;SDS011;64365;-1.756;110.040;2023-02-21T05:16:47;66.40;;;34.85;;
64907;SDS011;64365;-1.756;110.040;2023-02-21T05:19:16;65.72;;;33.65;;
64907;SDS011;64365;-1.756;110.040;2023-02-21T05:21:52;64.50;;;32.80;;
64907;SDS011;64365;-1.756;110.040;2023-02-21T05:24:21;66.15;;;33.35;;
64907;SDS011;64365;-1.756;110.040;2023-02-21T05:26:47;62.25;;;31.80;;
64907;SDS011;64365;-1.756;110.040;2023-02-21T05:29:14;67.20;;;33.15;;
64907;SDS011;64365;-1.756;110.040;2023-02-21T05:31:41;69.82;;;34.83;;
64907;SDS011;64365;-1.756;110.040;2023-02-21T05:34:08;63.63;;;33.97;;
64907;SDS011;64365;-1.756;110.040;2023-02-21T05:36:35;81.22;;;35.92;;
64907;SDS011;64365;-1.756;110.040;2023-02-21T05:39:03;70.20;;;33.55;;
64907;SDS011;64365;-1.756;110.040;2023-02-21T05:41:31;74.53;;;34.35;;
64907;SDS011;64365;-1.756;110.040;2023-02-21T05:43:59;62.65;;;33.58;;
64907;SDS011;64365;-1.756;110.040;2023-02-21T05:46:26;76.30;;;36.95;;
64907;SDS011;64365;-1.756;110.040;2023-02-21T05:48:54;73.30;;;36.88;;
64907;SDS011;64365;-1.756;110.040;2023-02-21T05:51:22;71.53;;;35.35;;
64907;SDS011;64365;-1.756;110.040;2023-02-21T05:53:49;72.78;;;36.60;;
64907;SDS011;64365;-1.756;110.040;2023-02-21T05:56:17;64.15;;;33.47;;
64907;SDS011;64365;-1.756;110.040;2023-02-21T05:58:46;64.05;;;34.55;;
64907;SDS011;64365;-1.756;110.040;2023-02-21T06:01:13;63.83;;;33.40;;
64907;SDS011;64365;-1.756;110.040;2023-02-21T06:03:39;78.80;;;36.65;;
64907;SDS011;64365;-1.756;110.040;2023-02-21T06:06:06;65.65;;;35.65;;
64907;SDS011;64365;-1.756;110.040;2023-02-21T06:08:40;72.82;;;36.83;;
64907;SDS011;64365;-1.756;110.040;2023-02-21T06:11:07;77.07;;;36.60;;
64907;SDS011;64365;-1.756;110.040;2023-02-21T06:13:35;66.95;;;35.92;;
64907;SDS011;64365;-1.756;110.040;2023-02-21T06:16:02;62.38;;;30.02;;
64907;SDS011;64365;-1.756;110.040;2023-02-21T06:18:29;59.33;;;31.08;;
64907;SDS011;64365;-1.756;110.040;2023-02-21T06:20:55;69.38;;;33.33;;
64907;SDS011;64365;-1.756;110.040;2023-02-21T06:23:22;70.22;;;30.95;;
64907;SDS011;64365;-1.756;110.040;2023-02-21T06:25:48;68.13;;;33.60;;
64907;SDS011;64365;-1.756;110.040;2023-02-21T06:28:15;70.70;;;36.80;;
64907;SDS011;64365;-1.756;110.040;2023-02-21T06:30:43;60.63;;;30.17;;
64907;SDS011;64365;-1.756;110.040;2023-02-21T06:33:09;62.20;;;31.98;;
64907;SDS011;64365;-1.756;110.040;2023-02-21T06:35:36;57.13;;;29.52;;
64907;SDS011;64365;-1.756;110.040;2023-02-21T06:38:03;67.13;;;35.45;;
64907;SDS011;64365;-1.756;110.040;2023-02-21T06:40:29;70.95;;;34.65;;
64907;SDS011;64365;-1.756;110.040;2023-02-21T06:42:56;63.83;;;32.30;;
64907;SDS011;64365;-1.756;110.040;2023-02-21T06:45:22;62.88;;;32.88;;
64907;SDS011;64365;-1.756;110.040;2023-02-21T06:47:50;67.40;;;32.08;;
64907;SDS011;64365;-1.756;110.040;2023-02-21T06:50:17;62.47;;;32.58;;
64907;SDS011;64365;-1.756;110.040;2023-02-21T06:52:43;54.45;;;28.92;;
64907;SDS011;64365;-1.756;110.040;2023-02-21T06:55:10;66.65;;;33.03;;
64907;SDS011;64365;-1.756;110.040;2023-02-21T06:57:36;66.78;;;31.83;;
64907;SDS011;64365;-1.756;110.040;2023-02-21T07:00:03;68.10;;;33.53;;
64907;SDS011;64365;-1.756;110.040;2023-02-21T07:02:31;73.13;;;36.15;;
64907;SDS011;64365;-1.756;110.040;2023-02-21T07:04:59;67.40;;;33.60;;
64907;SDS011;64365;-1.756;110.040;2023-02-21T07:07:25;63.00;;;33.38;;
64907;SDS011;64365;-1.756;110.040;2023-02-21T07:09:52;65.15;;;33.67;;
64907;SDS011;64365;-1.756;110.040;2023-02-21T07:12:18;62.97;;;31.30;;
64907;SDS011;64365;-1.756;110.040;2023-02-21T07:14:45;67.78;;;30.80;;
64907;SDS011;64365;-1.756;110.040;2023-02-21T07:17:11;62.05;;;31.75;;
64907;SDS011;64365;-1.756;110.040;2023-02-21T07:19:38;68.90;;;33.25;;
64907;SDS011;64365;-1.756;110.040;2023-02-21T07:22:07;69.28;;;33.53;;
64907;SDS011;64365;-1.756;110.040;2023-02-21T07:24:34;58.65;;;31.98;;
64907;SDS011;64365;-1.756;110.040;2023-02-21T07:27:01;72.43;;;35.13;;
64907;SDS011;64365;-1.756;110.040;2023-02-21T07:29:27;72.60;;;36.05;;
64907;SDS011;64365;-1.756;110.040;2023-02-21T07:31:54;66.75;;;33.55;;
64907;SDS011;64365;-1.756;110.040;2023-02-21T07:34:21;69.65;;;36.53;;
64907;SDS011;64365;-1.756;110.040;2023-02-21T07:36:48;60.42;;;31.58;;
64907;SDS011;64365;-1.756;110.040;2023-02-21T07:39:16;64.25;;;31.52;;
64907;SDS011;64365;-1.756;110.040;2023-02-21T07:41:43;71.43;;;35.08;;
64907;SDS011;64365;-1.756;110.040;2023-02-21T07:44:09;75.93;;;35.95;;
64907;SDS011;64365;-1.756;110.040;2023-02-21T07:46:36;60.95;;;31.38;;
64907;SDS011;64365;-1.756;110.040;2023-02-21T07:49:02;68.53;;;34.63;;
64907;SDS011;64365;-1.756;110.040;2023-02-21T07:51:29;72.57;;;36.10;;
64907;SDS011;64365;-1.756;110.040;2023-02-21T07:53:56;61.03;;;34.05;;
64907;SDS011;64365;-1.756;110.040;2023-02-21T07:56:24;61.17;;;31.73;;
64907;SDS011;64365;-1.756;110.040;2023-02-21T07:58:51;72.25;;;36.08;;
64907;SDS011;64365;-1.756;110.040;2023-02-21T08:01:20;65.50;;;32.53;;
64907;SDS011;64365;-1.756;110.040;2023-02-21T08:03:49;69.07;;;36.03;;
64907;SDS011;64365;-1.756;110.040;2023-02-21T08:06:15;65.90;;;34.53;;
64907;SDS011;64365;-1.756;110.040;2023-02-21T08:08:43;60.60;;;34.60;;
64907;SDS011;64365;-1.756;110.040;2023-02-21T08:11:09;67.47;;;35.40;;
64907;SDS011;64365;-1.756;110.040;2023-02-21T08:13:37;73.63;;;35.28;;
64907;SDS011;64365;-1.756;110.040;2023-02-21T08:16:04;65.15;;;34.63;;
64907;SDS011;64365;-1.756;110.040;2023-02-21T08:18:31;76.25;;;37.60;;
64907;SDS011;64365;-1.756;110.040;2023-02-21T08:20:57;62.10;;;34.13;;
64907;SDS011;64365;-1.756;110.040;2023-02-21T08:23:24;68.82;;;34.20;;
64907;SDS011;64365;-1.756;110.040;2023-02-21T08:25:53;73.72;;;37.50;;
64907;SDS011;64365;-1.756;110.040;2023-02-21T08:28:20;69.13;;;34.90;;
64907;SDS011;64365;-1.756;110.040;2023-02-21T08:30:48;66.07;;;32.78;;
64907;SDS011;64365;-1.756;110.040;2023-02-21T08:33:14;57.50;;;30.10;;
64907;SDS011;64365;-1.756;110.040;2023-02-21T08:35:41;65.35;;;35.92;;
64907;SDS011;64365;-1.756;110.040;2023-02-21T08:38:07;62.42;;;33.22;;
64907;SDS011;64365;-1.756;110.040;2023-02-21T08:40:34;68.70;;;36.25;;
64907;SDS011;64365;-1.756;110.040;2023-02-21T08:43:01;77.93;;;37.08;;
64907;SDS011;64365;-1.756;110.040;2023-02-21T08:45:29;63.33;;;34.28;;
64907;SDS011;64365;-1.756;110.040;2023-02-21T08:47:57;75.03;;;36.00;;
64907;SDS011;64365;-1.756;110.040;2023-02-21T08:50:24;62.97;;;29.88;;
64907;SDS011;64365;-1.756;110.040;2023-02-21T08:52:52;67.20;;;33.85;;
64907;SDS011;64365;-1.756;110.040;2023-02-21T08:55:20;68.65;;;33.47;;
64907;SDS011;64365;-1.756;110.040;2023-02-21T08:57:48;75.85;;;37.38;;
64907;SDS011;64365;-1.756;110.040;2023-02-21T09:00:16;65.70;;;33.58;;
64907;SDS011;64365;-1.756;110.040;2023-02-21T09:02:43;75.40;;;36.55;;
64907;SDS011;64365;-1.756;110.040;2023-02-21T09:05:12;73.45;;;36.83;;
64907;SDS011;64365;-1.756;110.040;2023-02-21T09:07:41;70.35;;;35.65;;
64907;SDS011;64365;-1.756;110.040;2023-02-21T09:10:08;72.45;;;39.03;;
64907;SDS011;64365;-1.756;110.040;2023-02-21T09:12:35;69.10;;;33.47;;
64907;SDS011;64365;-1.756;110.040;2023-02-21T09:15:02;71.45;;;33.97;;
64907;SDS011;64365;-1.756;110.040;2023-02-21T09:17:29;71.72;;;36.67;;
64907;SDS011;64365;-1.756;110.040;2023-02-21T09:19:58;75.07;;;37.05;;
64907;SDS011;64365;-1.756;110.040;2023-02-21T09:22:26;66.47;;;32.00;;
64907;SDS011;64365;-1.756;110.040;2023-02-21T09:24:52;66.40;;;32.90;;
64907;SDS011;64365;-1.756;110.040;2023-02-21T09:27:19;69.25;;;35.72;;
64907;SDS011;64365;-1.756;110.040;2023-02-21T09:30:00;69.97;;;34.33;;
64907;SDS011;64365;-1.756;110.040;2023-02-21T09:32:28;68.38;;;33.83;;
64907;SDS011;64365;-1.756;110.040;2023-02-21T09:34:54;70.93;;;32.95;;
64907;SDS011;64365;-1.756;110.040;2023-02-21T09:37:21;67.35;;;33.13;;
64907;SDS011;64365;-1.756;110.040;2023-02-21T09:39:49;66.43;;;33.85;;
64907;SDS011;64365;-1.756;110.040;2023-02-21T09:42:16;67.97;;;33.28;;
64907;SDS011;64365;-1.756;110.040;2023-02-21T09:44:44;69.03;;;33.08;;
64907;SDS011;64365;-1.756;110.040;2023-02-21T09:47:14;64.22;;;31.15;;
64907;SDS011;64365;-1.756;110.040;2023-02-21T09:52:17;67.75;;;33.75;;
64907;SDS011;64365;-1.756;110.040;2023-02-21T09:54:53;62.45;;;32.20;;
64907;SDS011;64365;-1.756;110.040;2023-02-21T09:57:22;68.57;;;35.78;;
64907;SDS011;64365;-1.756;110.040;2023-02-21T09:59:49;75.68;;;35.53;;
64907;SDS011;64365;-1.756;110.040;2023-02-21T10:02:20;70.30;;;34.17;;
64907;SDS011;64365;-1.756;110.040;2023-02-21T10:04:59;65.00;;;33.47;;
64907;SDS011;64365;-1.756;110.040;2023-02-21T10:07:34;68.75;;;34.72;;
64907;SDS011;64365;-1.756;110.040;2023-02-21T10:10:10;68.90;;;35.25;;
64907;SDS011;64365;-1.756;110.040;2023-02-21T10:12:43;78.25;;;34.97;;
64907;SDS011;64365;-1.756;110.040;2023-02-21T10:15:23;80.45;;;39.40;;
64907;SDS011;64365;-1.756;110.040;2023-02-21T10:18:14;86.53;;;38.97;;
64907;SDS011;64365;-1.756;110.040;2023-02-21T10:20:50;72.25;;;37.15;;
64907;SDS011;64365;-1.756;110.040;2023-02-21T10:23:21;83.60;;;37.20;;
64907;SDS011;64365;-1.756;110.040;2023-02-21T10:25:54;77.70;;;36.38;;
64907;SDS011;64365;-1.756;110.040;2023-02-21T10:28:24;74.25;;;36.97;;
64907;SDS011;64365;-1.756;110.040;2023-02-21T10:30:52;73.22;;;35.50;;
64907;SDS011;64365;-1.756;110.040;2023-02-21T10:33:25;65.85;;;32.95;;
64907;SDS011;64365;-1.756;110.040;2023-02-21T10:35:52;80.80;;;38.90;;
64907;SDS011;64365;-1.756;110.040;2023-02-21T10:38:22;93.72;;;39.97;;
64907;SDS011;64365;-1.756;110.040;2023-02-21T10:40:52;76.72;;;37.00;;
64907;SDS011;64365;-1.756;110.040;2023-02-21T10:43:24;79.20;;;37.63;;
64907;SDS011;64365;-1.756;110.040;2023-02-21T10:45:57;73.00;;;37.42;;
64907;SDS011;64365;-1.756;110.040;2023-02-21T10:48:29;70.20;;;36.35;;
64907;SDS011;64365;-1.756;110.040;2023-02-21T10:51:06;70.18;;;36.45;;
64907;SDS011;64365;-1.756;110.040;2023-02-21T10:53:36;78.25;;;36.25;;
64907;SDS011;64365;-1.756;110.040;2023-02-21T10:58:54;67.82;;;32.05;;
64907;SDS011;64365;-1.756;110.040;2023-02-21T11:01:29;73.65;;;37.00;;
64907;SDS011;64365;-1.756;110.040;2023-02-21T11:04:00;73.97;;;34.47;;
64907;SDS011;64365;-1.756;110.040;2023-02-21T11:06:31;73.05;;;35.80;;
64907;SDS011;64365;-1.756;110.040;2023-02-21T11:09:01;76.00;;;36.50;;
64907;SDS011;64365;-1.756;110.040;2023-02-21T11:11:51;64.13;;;33.00;;
64907;SDS011;64365;-1.756;110.040;2023-02-21T11:14:25;74.72;;;37.25;;
64907;SDS011;64365;-1.756;110.040;2023-02-21T11:19:45;68.30;;;35.90;;
64907;SDS011;64365;-1.756;110.040;2023-02-21T11:22:13;69.15;;;36.10;;
64907;SDS011;64365;-1.756;110.040;2023-02-21T11:24:45;75.53;;;36.47;;
64907;SDS011;64365;-1.756;110.040;2023-02-21T11:27:17;73.80;;;35.78;;
64907;SDS011;64365;-1.756;110.040;2023-02-21T11:29:45;67.85;;;36.53;;
64907;SDS011;64365;-1.756;110.040;2023-02-21T11:32:18;72.60;;;36.65;;
64907;SDS011;64365;-1.756;110.040;2023-02-21T11:34:50;78.80;;;37.50;;
64907;SDS011;64365;-1.756;110.040;2023-02-21T11:37:16;76.15;;;37.83;;
64907;SDS011;64365;-1.756;110.040;2023-02-21T11:39:49;67.95;;;33.47;;
64907;SDS011;64365;-1.756;110.040;2023-02-21T11:42:24;85.43;;;39.10;;
64907;SDS011;64365;-1.756;110.040;2023-02-21T11:45:03;70.07;;;36.30;;
64907;SDS011;64365;-1.756;110.040;2023-02-21T11:47:37;63.05;;;30.67;;
64907;SDS011;64365;-1.756;110.040;2023-02-21T11:50:07;80.78;;;39.13;;
64907;SDS011;64365;-1.756;110.040;2023-02-21T11:52:39;80.45;;;37.78;;
64907;SDS011;64365;-1.756;110.040;2023-02-21T11:55:11;78.82;;;37.47;;
64907;SDS011;64365;-1.756;110.040;2023-02-21T11:57:43;69.32;;;36.72;;
64907;SDS011;64365;-1.756;110.040;2023-02-21T12:00:21;75.55;;;37.63;;
64907;SDS011;64365;-1.756;110.040;2023-02-21T12:06:01;61.10;;;30.88;;
64907;SDS011;64365;-1.756;110.040;2023-02-21T12:08:36;69.45;;;34.38;;
64907;SDS011;64365;-1.756;110.040;2023-02-21T12:11:17;71.85;;;33.75;;
64907;SDS011;64365;-1.756;110.040;2023-02-21T12:13:57;66.03;;;34.70;;
64907;SDS011;64365;-1.756;110.040;2023-02-21T12:16:36;69.63;;;34.95;;
64907;SDS011;64365;-1.756;110.040;2023-02-21T12:19:18;73.90;;;35.60;;
64907;SDS011;64365;-1.756;110.040;2023-02-21T12:21:59;65.97;;;33.03;;
64907;SDS011;64365;-1.756;110.040;2023-02-21T12:24:33;68.40;;;34.00;;
64907;SDS011;64365;-1.756;110.040;2023-02-21T12:29:48;75.82;;;35.08;;
64907;SDS011;64365;-1.756;110.040;2023-02-21T12:32:27;74.82;;;35.00;;
64907;SDS011;64365;-1.756;110.040;2023-02-21T12:35:05;80.95;;;39.13;;
64907;SDS011;64365;-1.756;110.040;2023-02-21T12:37:46;74.47;;;36.63;;
64907;SDS011;64365;-1.756;110.040;2023-02-21T12:40:25;87.50;;;39.90;;
64907;SDS011;64365;-1.756;110.040;2023-02-21T12:42:56;88.20;;;37.53;;
64907;SDS011;64365;-1.756;110.040;2023-02-21T12:45:42;89.78;;;37.85;;
64907;SDS011;64365;-1.756;110.040;2023-02-21T12:48:23;80.30;;;36.92;;
64907;SDS011;64365;-1.756;110.040;2023-02-21T12:50:55;88.53;;;35.75;;
64907;SDS011;64365;-1.756;110.040;2023-02-21T12:53:28;83.00;;;37.55;;
64907;SDS011;64365;-1.756;110.040;2023-02-21T12:56:00;86.13;;;37.88;;
64907;SDS011;64365;-1.756;110.040;2023-02-21T12:58:30;81.10;;;37.95;;
64907;SDS011;64365;-1.756;110.040;2023-02-21T13:01:03;62.88;;;29.65;;
64907;SDS011;64365;-1.756;110.040;2023-02-21T13:03:38;67.75;;;31.80;;
64907;SDS011;64365;-1.756;110.040;2023-02-21T13:06:12;63.53;;;30.73;;
64907;SDS011;64365;-1.756;110.040;2023-02-21T13:08:46;67.72;;;33.67;;
64907;SDS011;64365;-1.756;110.040;2023-02-21T13:11:24;59.97;;;28.38;;
64907;SDS011;64365;-1.756;110.040;2023-02-21T13:13:54;72.45;;;32.72;;
64907;SDS011;64365;-1.756;110.040;2023-02-21T13:16:24;66.97;;;31.60;;
64907;SDS011;64365;-1.756;110.040;2023-02-21T13:18:51;62.78;;;32.58;;
64907;SDS011;64365;-1.756;110.040;2023-02-21T13:21:26;64.53;;;30.88;;
64907;SDS011;64365;-1.756;110.040;2023-02-21T13:27:34;57.20;;;27.70;;
64907;SDS011;64365;-1.756;110.040;2023-02-21T13:30:12;59.75;;;31.85;;
64907;SDS011;64365;-1.756;110.040;2023-02-21T13:32:50;68.22;;;32.05;;
64907;SDS011;64365;-1.756;110.040;2023-02-21T13:35:19;66.90;;;31.67;;
64907;SDS011;64365;-1.756;110.040;2023-02-21T13:37:51;60.47;;;29.80;;
64907;SDS011;64365;-1.756;110.040;2023-02-21T13:40:20;55.53;;;27.50;;
64907;SDS011;64365;-1.756;110.040;2023-02-21T13:42:57;53.60;;;26.95;;
64907;SDS011;64365;-1.756;110.040;2023-02-21T13:45:27;49.78;;;25.83;;
64907;SDS011;64365;-1.756;110.040;2023-02-21T13:50:47;58.75;;;28.35;;
64907;SDS011;64365;-1.756;110.040;2023-02-21T13:53:15;48.63;;;28.05;;
64907;SDS011;64365;-1.756;110.040;2023-02-21T13:58:43;51.42;;;25.50;;
64907;SDS011;64365;-1.756;110.040;2023-02-21T14:07:11;40.33;;;22.38;;
64907;SDS011;64365;-1.756;110.040;2023-02-21T14:09:38;51.75;;;27.40;;
64907;SDS011;64365;-1.756;110.040;2023-02-21T14:12:06;47.72;;;25.60;;
64907;SDS011;64365;-1.756;110.040;2023-02-21T14:14:37;46.05;;;27.30;;
64907;SDS011;64365;-1.756;110.040;2023-02-21T14:17:07;47.08;;;25.30;;
64907;SDS011;64365;-1.756;110.040;2023-02-21T14:19:36;48.08;;;26.55;;
64907;SDS011;64365;-1.756;110.040;2023-02-21T14:22:10;50.78;;;27.02;;
64907;SDS011;64365;-1.756;110.040;2023-02-21T14:24:40;52.53;;;27.38;;
64907;SDS011;64365;-1.756;110.040;2023-02-21T14:30:14;52.53;;;25.88;;
64907;SDS011;64365;-1.756;110.040;2023-02-21T14:32:48;52.20;;;27.95;;
64907;SDS011;64365;-1.756;110.040;2023-02-21T14:35:22;47.05;;;25.70;;
64907;SDS011;64365;-1.756;110.040;2023-02-21T14:37:56;58.05;;;29.38;;
64907;SDS011;64365;-1.756;110.040;2023-02-21T14:40:28;55.20;;;26.65;;
64907;SDS011;64365;-1.756;110.040;2023-02-21T14:46:09;45.33;;;24.45;;
64907;SDS011;64365;-1.756;110.040;2023-02-21T14:48:55;43.83;;;24.08;;
64907;SDS011;64365;-1.756;110.040;2023-02-21T14:51:57;51.55;;;27.40;;
64907;SDS011;64365;-1.756;110.040;2023-02-21T14:57:41;44.15;;;24.58;;
64907;SDS011;64365;-1.756;110.040;2023-02-21T15:00:24;45.65;;;23.38;;
64907;SDS011;64365;-1.756;110.040;2023-02-21T15:03:00;49.78;;;24.75;;
64907;SDS011;64365;-1.756;110.040;2023-02-21T15:05:35;49.28;;;26.17;;
64907;SDS011;64365;-1.756;110.040;2023-02-21T15:08:07;41.75;;;22.58;;
64907;SDS011;64365;-1.756;110.040;2023-02-21T15:10:41;38.65;;;21.52;;
64907;SDS011;64365;-1.756;110.040;2023-02-21T15:13:19;38.97;;;20.60;;
64907;SDS011;64365;-1.756;110.040;2023-02-21T15:15:50;34.17;;;18.17;;
64907;SDS011;64365;-1.756;110.040;2023-02-21T15:21:03;35.20;;;20.88;;
64907;SDS011;64365;-1.756;110.040;2023-02-21T15:23:32;32.05;;;17.52;;
64907;SDS011;64365;-1.756;110.040;2023-02-21T15:26:01;28.55;;;16.35;;
64907;SDS011;64365;-1.756;110.040;2023-02-21T15:28:42;29.77;;;17.00;;
64907;SDS011;64365;-1.756;110.040;2023-02-21T15:31:10;21.77;;;12.20;;
64907;SDS011;64365;-1.756;110.040;2023-02-21T15:33:39;21.25;;;13.20;;